Latest Weather Observations for Strahan

IDT60801

Issued at 12:01 pm EST Friday 14 May 2021 (issued every 10 minutes, with the page automatically refreshed every 10 minutes)

About weather observations | Map of weather stations | Latest weather observations for TAS | Other Formats
Station Details ID: 097072 Name: STRAHAN AERODROME Lat: -42.16 Lon: 145.29 Height: 21.0 m
Data from the previous 72 hours. | See also: Recent months at Strahan
Date/Time
EST
Temp
°C
App
Temp
°C
Dew
Point
°C
Rel
Hum
%
Delta-T
°C
Wind Press
QNH
hPa
Press
MSL
hPa
Rain since
9am
mm
Dir  Spd
km/h
Gust
km/h
Spd
kts
Gust
kts
14/12:00pm 10.0 4.4 5.6 74 2.0 SW 24 41 13 22 1007.8 1007.8 1.2
14/11:30am 9.5 4.2 6.8 83 1.3 SW 24 35 13 19 1007.8 1007.8 0.6
14/11:00am 10.0 7.3 8.9 93 0.5 SSW 13 20 7 11 1007.7 1007.7 0.6
14/10:30am 8.1 3.4 7.7 97 0.2 S 22 41 12 22 1007.6 1007.6 0.6
14/10:00am 9.1 4.2 8.5 96 0.3 SSW 24 33 13 18 1007.0 1007.0 0.6
14/09:30am 8.3 2.1 7.7 96 0.3 SSW 30 39 16 21 1006.6 1006.6 0.4
14/09:17am 7.8 1.8 7.2 96 0.3 SSW 28 48 15 26 1006.2 1006.2 0.4
14/09:00am 8.6 2.5 8.2 97 0.2 SSW 30 43 16 23 1005.8 1005.8 23.4
14/08:30am 8.3 2.1 7.7 96 0.3 SW 30 43 16 23 1005.0 1005.0 23.2
14/08:08am 8.2 2.3 7.6 96 0.3 SW 28 44 15 24 1004.4 1004.4 23.2
14/08:00am 8.6 4.6 8.2 97 0.2 WSW 19 26 10 14 1004.2 1004.2 23.0
14/07:48am 8.0 1.7 7.4 96 0.3 SW 30 48 16 26 1004.0 1004.0 23.0
14/07:40am 7.6 0.3 7.0 96 0.3 SW 35 50 19 27 1003.9 1003.9 23.0
14/07:36am 8.7 2.6 8.1 96 0.3 WSW 30 50 16 27 1003.6 1003.6 22.8
14/07:30am 8.3 3.2 7.7 96 0.3 WSW 24 35 13 19 1003.4 1003.4 22.8
14/07:13am 8.4 2.3 6.4 87 0.9 WSW 28 50 15 27 1003.4 1003.4 22.4
14/07:00am 9.0 2.4 5.9 81 1.4 WSW 30 43 16 23 1002.9 1002.9 22.4
14/06:36am 8.7 1.4 7.2 90 0.7 W 35 54 19 29 1002.8 1002.8 22.4
14/06:30am 9.5 1.9 7.6 88 0.9 W 37 54 20 29 1002.7 1002.7 22.4
14/06:00am 9.7 3.2 8.1 90 0.8 W 32 48 17 26 1002.4 1002.4 22.4
14/05:31am 9.1 3.2 7.4 89 0.8 W 28 46 15 25 1002.3 1002.3 22.4
14/05:30am 9.2 3.4 8.1 93 0.5 W 28 39 15 21 1002.3 1002.3 22.4
14/05:12am 8.7 2.8 7.5 92 0.6 W 28 48 15 26 1002.4 1002.4 22.4
14/05:00am 8.4 2.8 7.2 92 0.6 W 26 35 14 19 1002.4 1002.4 22.4
14/04:49am 8.8 2.7 6.8 87 0.9 W 28 46 15 25 1002.5 1002.5 22.0
14/04:30am 8.8 1.2 7.7 93 0.5 W 37 50 20 27 1002.5 1002.5 22.0
14/04:00am 9.2 2.8 7.0 86 1.0 WNW 30 54 16 29 1002.6 1002.6 21.6
14/03:49am 9.2 2.7 6.6 84 1.2 W 30 48 16 26 1002.6 1002.6 21.6
14/03:30am 8.8 2.2 5.9 82 1.3 W 30 43 16 23 1002.6 1002.6 21.6
14/03:01am 8.8 2.1 8.2 96 0.3 W 33 46 18 25 1002.7 1002.7 21.6
14/03:00am 8.9 2.2 8.3 96 0.3 W 33 46 18 25 1002.7 1002.7 21.6
14/02:43am 7.4 0.9 6.7 95 0.3 WNW 30 52 16 28 1002.9 1002.9 21.4
14/02:41am 8.7 2.9 7.9 95 0.4 WNW 28 52 15 28 1002.9 1002.9 20.8
14/02:30am 9.0 3.9 7.8 92 0.6 WNW 24 37 13 20 1002.7 1002.7 20.4
14/02:00am 7.3 3.4 7.0 98 0.1 WSW 17 26 9 14 1002.9 1002.9 20.4
14/01:52am 6.8 2.8 6.5 98 0.1 NW 17 24 9 13 1002.8 1002.8 20.4
14/01:39am 6.0 1.8 5.6 97 0.2 WNW 17 39 9 21 1003.3 1003.3 18.8
14/01:32am 5.5 -0.2 5.1 97 0.2 NW 24 46 13 25 1003.6 1003.6 17.2
14/01:31am 5.5 -0.2 5.1 97 0.2 NW 24 46 13 25 1003.6 1003.6 17.0
14/01:30am 5.9 0.3 5.5 97 0.2 NNW 24 46 13 25 1004.1 1004.1 16.6
14/01:00am 7.9 2.4 7.5 97 0.2 NNW 26 35 14 19 1003.5 1003.5 15.6
14/12:36am 7.8 0.9 7.4 97 0.2 NW 33 52 18 28 1003.6 1003.6 15.4
14/12:30am 7.9 0.7 7.5 97 0.2 WNW 35 52 19 28 1004.0 1004.0 15.2
14/12:28am 8.1 0.9 7.7 97 0.2 WNW 35 52 19 28 1004.0 1004.0 15.0
14/12:07am 7.0 0.5 6.7 98 0.1 NNW 30 57 16 31 1004.7 1004.7 13.6
14/12:04am 7.3 2.4 7.0 98 0.1 NNW 22 37 12 20 1004.9 1004.9 12.2
14/12:00am 6.9 2.3 6.6 98 0.1 N 20 30 11 16 1004.2 1004.2 10.8
 
Date/Time
EST
Temp
°C
App
Temp
°C
Dew
Point
°C
Rel
Hum
%
Delta-T
°C
Wind Press
QNH
hPa
Press
MSL
hPa
Rain since
9am
mm
Dir  Spd
km/h
Gust
km/h
Spd
kts
Gust
kts
13/11:30pm 7.0 3.4 6.6 97 0.2 NNE 15 19 8 10 1004.3 1004.3 10.0
13/11:00pm 6.9 2.8 6.3 96 0.3 NNE 17 22 9 12 1005.2 1005.2 10.0
13/10:30pm 7.6 4.4 6.9 95 0.3 N 13 15 7 8 1005.3 1005.3 10.0
13/10:00pm 8.5 3.8 6.0 84 1.1 NW 20 30 11 16 1005.9 1005.9 10.0
13/09:30pm 8.0 4.3 4.4 78 1.6 WNW 13 19 7 10 1006.2 1006.2 10.0
13/09:00pm 8.4 4.0 5.0 79 1.5 W 17 22 9 12 1006.5 1006.5 10.0
13/08:30pm 7.2 4.3 6.3 94 0.4 W 11 19 6 10 1006.8 1006.8 10.0
13/08:00pm 7.4 1.0 5.2 86 1.0 WSW 28 44 15 24 1007.1 1007.1 10.0
13/07:30pm 8.8 3.6 5.5 80 1.5 W 22 35 12 19 1007.1 1007.1 9.4
13/07:00pm 8.4 2.6 7.8 96 0.3 WSW 28 41 15 22 1006.9 1006.9 9.4
13/06:30pm 8.6 4.9 8.0 96 0.3 WSW 17 28 9 15 1006.5 1006.5 9.4
13/06:00pm 8.6 4.3 7.2 91 0.7 W 19 26 10 14 1006.4 1006.4 9.2
13/05:30pm 8.6 3.6 8.0 96 0.3 WNW 24 39 13 21 1006.4 1006.4 9.2
13/05:00pm 9.2 3.9 5.2 76 1.8 WSW 22 35 12 19 1006.2 1006.2 9.0
13/04:30pm 9.7 5.0 5.9 77 1.7 WSW 20 30 11 16 1006.1 1006.1 9.0
13/04:00pm 9.9 5.3 8.0 88 0.9 WSW 22 32 12 17 1005.9 1005.9 9.0
13/03:30pm 10.2 4.3 7.6 84 1.2 WSW 28 37 15 20 1005.8 1005.8 8.8
13/03:00pm 10.5 6.3 8.3 86 1.1 WSW 20 37 11 20 1005.4 1005.4 8.8
13/02:30pm 9.8 3.8 6.9 82 1.4 W 28 56 15 30 1005.5 1005.5 8.8
13/02:00pm 9.9 3.8 8.3 90 0.8 W 30 48 16 26 1005.7 1005.7 8.8
13/01:59pm 9.9 4.2 8.3 90 0.8 W 28 48 15 26 1005.7 1005.7 8.8
13/01:30pm 10.3 6.2 8.7 90 0.8 W 20 41 11 22 1005.7 1005.7 8.8
13/01:00pm 9.0 6.7 8.9 99 0.0 N 11 15 6 8 1005.7 1005.7 8.4
13/12:52pm 8.9 6.5 8.8 99 0.0 N 11 13 6 7 1005.8 1005.8 8.4
13/12:30pm 8.7 6.6 8.4 98 0.1 NW 9 13 5 7 1005.9 1005.9 7.6
13/12:24pm 8.6 6.1 8.2 97 0.2 WNW 11 15 6 8 1006.0 1006.0 7.4
13/12:06pm 8.3 2.9 7.9 97 0.2 W 26 37 14 20 1006.1 1006.1 6.4
13/12:04pm 8.4 2.6 8.0 97 0.2 W 28 39 15 21 1006.1 1006.1 6.4
13/12:00pm 8.3 1.7 7.9 97 0.2 W 32 50 17 27 1006.1 1006.1 6.2
13/11:59am 8.4 1.9 8.0 97 0.2 W 32 50 17 27 1006.1 1006.1 6.2
13/11:30am 10.0 3.9 9.7 98 0.2 W 32 44 17 24 1006.0 1006.0 3.8
13/11:26am 10.1 3.8 9.8 98 0.2 W 33 46 18 25 1006.0 1006.0 3.4
13/11:17am 9.9 3.2 9.6 98 0.1 W 35 50 19 27 1005.6 1005.6 2.8
13/11:00am 10.0 2.6 9.7 98 0.2 W 39 61 21 33 1005.4 1005.4 2.0
13/10:58am 10.1 2.7 9.8 98 0.2 WSW 39 61 21 33 1005.2 1005.2 2.0
13/10:49am 10.3 1.6 10.0 98 0.2 WSW 46 65 25 35 1004.8 1004.8 1.8
13/10:45am 10.3 1.6 10.0 98 0.2 W 46 72 25 39 1004.5 1004.5 1.6
13/10:39am 10.9 4.5 10.6 98 0.2 NW 35 72 19 39 1004.0 1004.0 1.6
13/10:37am 11.8 6.2 11.5 98 0.2 NNW 32 61 17 33 1003.6 1003.6 1.6
13/10:36am 11.9 6.7 11.7 99 0.1 N 30 61 16 33 1003.6 1003.6 1.6
13/10:30am 12.1 7.3 11.8 98 0.2 N 28 41 15 22 1003.6 1003.6 1.4
13/10:28am 12.2 7.5 11.9 98 0.2 N 28 41 15 22 1003.6 1003.6 1.4
13/10:00am 12.9 8.7 12.3 96 0.3 N 26 39 14 21 1003.9 1003.9 0.0
13/09:30am 13.1 8.4 12.0 93 0.6 N 28 41 15 22 1004.4 1004.4 0.0
13/09:00am 13.0 8.2 11.7 92 0.7 N 28 44 15 24 1004.8 1004.8 0.0
13/08:30am 13.2 8.2 11.1 87 1.1 N 28 41 15 22 1005.1 1005.1 0.0
13/08:00am 13.1 8.4 10.5 84 1.4 N 26 44 14 24 1005.2 1005.2 0.0
13/07:30am 13.0 7.5 10.4 84 1.3 N 30 41 16 22 1005.7 1005.7 0.0
13/07:00am 12.9 8.5 10.3 84 1.3 N 24 32 13 17 1006.1 1006.1 0.0
13/06:30am 12.8 9.1 10.3 85 1.3 N 20 28 11 15 1006.6 1006.6 0.0
13/06:00am 13.2 8.3 10.0 81 1.7 N 26 37 14 20 1007.1 1007.1 0.0
13/05:30am 13.3 8.4 11.4 88 1.0 NNW 28 46 15 25 1007.8 1007.8 0.0
13/05:29am 13.3 8.4 11.4 88 1.0 NNW 28 46 15 25 1007.9 1007.9 0.0
13/05:00am 13.8 8.3 11.8 88 1.1 NNW 32 44 17 24 1008.3 1008.4 0.0
13/04:30am 13.7 9.1 10.9 83 1.5 N 26 35 14 19 1008.5 1008.6 0.0
13/04:00am 13.7 8.2 11.8 88 1.0 N 32 43 17 23 1008.7 1008.8 0.0
13/03:30am 13.3 8.9 13.0 98 0.2 NNW 28 41 15 22 1009.0 1009.1 0.0
13/03:00am 12.8 9.7 12.3 97 0.3 NNW 20 26 11 14 1009.3 1009.4 0.0
13/02:30am 11.6 8.8 11.3 98 0.2 NNW 17 20 9 11 1009.8 1009.9 0.0
13/02:00am 10.2 7.8 9.9 98 0.2 NNW 13 24 7 13 1010.2 1010.3 0.0
13/01:30am 10.0 7.5 9.7 98 0.2 NNW 13 15 7 8 1011.0 1011.1 0.0
13/01:00am 10.0 7.5 9.7 98 0.2 NNW 13 15 7 8 1011.8 1011.9 0.0
13/12:30am 10.5 7.5 10.5 100 0.0 NNW 17 28 9 15 1012.5 1012.6 0.0
13/12:00am 6.9 5.0 6.9 100 0.0 NNW 6 9 3 5 1012.9 1013.0 0.0
 
Date/Time
EST
Temp
°C
App
Temp
°C
Dew
Point
°C
Rel
Hum
%
Delta-T
°C
Wind Press
QNH
hPa
Press
MSL
hPa
Rain since
9am
mm
Dir  Spd
km/h
Gust
km/h
Spd
kts
Gust
kts
12/11:30pm 6.1 3.1 6.0 99 0.0 N 11 19 6 10 1013.5 1013.6 0.0
12/11:00pm 4.7 2.7 4.6 99 0.0 N 4 11 2 6 1014.3 1014.4 0.0
12/10:30pm 5.2 2.7 4.9 98 0.1 NNE 7 11 4 6 1015.1 1015.2 0.0
12/10:00pm 6.0 3.7 5.7 98 0.1 NNE 7 11 4 6 1016.0 1016.0 0.0
12/09:30pm 5.6 3.2 5.3 98 0.1 NNE 7 9 4 5 1016.6 1016.6 0.0
12/09:00pm 5.7 3.3 5.4 98 0.1 NNE 7 11 4 6 1016.8 1016.8 0.0
12/08:30pm 6.4 3.8 6.1 98 0.1 NE 9 13 5 7 1017.6 1017.6 0.0
12/08:00pm 5.5 2.7 5.1 97 0.2 N 9 11 5 6 1018.1 1018.1 0.0
12/07:30pm 5.9 3.2 5.5 97 0.2 N 9 11 5 6 1018.7 1018.7 0.0
12/07:00pm 7.1 4.6 6.7 97 0.2 NE 9 11 5 6 1019.1 1019.1 0.0
12/06:30pm 7.3 6.6 6.9 97 0.2 CALM 0 0 0 0 1019.7 1019.7 0.0
12/06:00pm 8.5 8.0 7.9 96 0.3 CALM 0 0 0 0 1019.8 1019.8 0.0
12/05:30pm 9.7 9.1 7.3 85 1.1 CALM 0 0 0 0 1020.1 1020.1 0.0
12/05:00pm 10.4 8.6 7.1 80 1.6 E 6 11 3 6 1020.3 1020.3 0.0
12/04:30pm 10.9 8.8 6.6 75 2.0 SE 7 11 4 6 1020.6 1020.6 0.0
12/04:00pm 12.2 9.6 6.3 67 2.8 SSE 9 13 5 7 1021.1 1021.1 0.0
12/03:30pm 12.1 10.2 7.4 73 2.3 SSE 7 13 4 7 1021.4 1021.4 0.0
12/03:00pm 12.5 9.5 6.1 65 3.0 SE 11 15 6 8 1021.9 1021.9 0.0
12/02:30pm 13.2 10.3 6.3 63 3.3 SSE 11 13 6 7 1022.5 1022.5 0.0
12/02:00pm 13.3 10.4 6.6 64 3.2 SSE 11 15 6 8 1023.0 1023.0 0.0
12/01:30pm 13.2 10.4 6.8 65 3.1 SSE 11 17 6 9 1023.7 1023.7 0.0
12/01:00pm 12.8 9.5 6.4 65 3.0 S 13 15 7 8 1024.3 1024.3 0.0
12/12:30pm 12.6 10.0 6.0 64 3.1 SSE 9 13 5 7 1024.8 1024.8 0.0
12/12:00pm 13.0 11.0 7.0 67 2.9 SSE 7 11 4 6 1025.4 1025.4 0.0
12/11:30am 12.0 9.0 6.1 67 2.8 E 11 15 6 8 1026.1 1026.1 0.0
12/11:00am 11.5 8.6 6.6 72 2.3 SSE 11 15 6 8 1026.9 1026.9 0.0
12/10:30am 10.8 7.8 5.8 71 2.3 SSE 11 13 6 7 1027.3 1027.3 0.0
12/10:00am 10.9 9.3 4.6 65 2.8 N 2 7 1 4 1027.8 1027.8 0.0
12/09:30am 10.0 7.8 5.2 72 2.2 NE 6 11 3 6 1028.2 1028.2 0.0
12/09:00am 8.2 5.8 5.1 81 1.4 NE 7 13 4 7 1028.2 1028.2 0.0
12/08:30am 5.7 2.8 4.7 93 0.4 NNE 9 13 5 7 1028.6 1028.6 0.0
12/08:00am 4.3 0.5 3.7 96 0.2 NNE 13 17 7 9 1028.4 1028.4 0.0
12/07:30am 3.9 0.4 3.3 96 0.2 NNE 11 17 6 9 1028.7 1028.7 0.0
12/07:00am 3.9 0.0 3.3 96 0.2 NNE 13 19 7 10 1028.8 1028.8 0.0
12/06:30am 3.7 -0.3 3.1 96 0.2 NNE 13 17 7 9 1028.7 1028.7 0.0
12/06:00am 2.9 -1.2 2.3 96 0.2 N 13 17 7 9 1028.7 1028.7 0.0
12/05:30am 3.7 -0.3 3.1 96 0.2 N 13 15 7 8 1028.9 1028.9 0.0
12/05:00am 4.5 0.9 3.2 91 0.5 NNE 11 15 6 8 1029.1 1029.1 0.0
12/04:30am 4.8 0.9 3.5 91 0.5 NNE 13 19 7 10 1029.1 1029.1 0.0
12/04:00am 5.2 1.4 3.9 91 0.5 NNE 13 19 7 10 1029.0 1029.0 0.0
12/03:30am 5.3 0.9 4.6 95 0.3 NNE 17 22 9 12 1029.1 1029.1 0.0
12/03:00am 5.6 1.6 4.9 95 0.3 NNE 15 20 8 11 1029.6 1029.6 0.0
12/02:30am 5.8 2.2 5.1 95 0.3 NE 13 19 7 10 1029.6 1029.6 0.0
12/02:00am 6.2 2.7 5.6 96 0.3 NE 13 19 7 10 1029.7 1029.7 0.0
12/01:30am 6.4 2.6 5.8 96 0.3 NE 15 19 8 10 1029.7 1029.7 0.0
12/01:00am 6.7 3.0 6.1 96 0.3 NNE 15 19 8 10 1029.5 1029.5 0.0
12/12:30am 7.0 3.7 6.6 97 0.2 NNE 13 19 7 10 1029.5 1029.5 0.0
12/12:00am 6.7 3.4 6.3 97 0.2 NNE 13 19 7 10 1029.6 1029.6 0.0
 
Date/Time
EST
Temp
°C
App
Temp
°C
Dew
Point
°C
Rel
Hum
%
Delta-T
°C
Wind Press
QNH
hPa
Press
MSL
hPa
Rain since
9am
mm
Dir  Spd
km/h
Gust
km/h
Spd
kts
Gust
kts
11/11:30pm 6.5 3.5 6.1 97 0.2 NNE 11 17 6 9 1029.6 1029.6 0.0
11/11:00pm 6.4 3.4 6.0 97 0.2 NNE 11 15 6 8 1029.8 1029.8 0.0
11/10:30pm 6.4 3.4 6.0 97 0.2 NNE 11 13 6 7 1029.8 1029.8 0.0
11/10:00pm 6.5 4.5 6.1 97 0.2 ENE 6 7 3 4 1029.8 1029.8 0.0
11/09:30pm 5.5 3.3 5.1 97 0.2 E 6 7 3 4 1029.7 1029.7 0.0
11/09:00pm 6.3 4.0 5.9 97 0.2 NNE 7 9 4 5 1029.4 1029.4 0.0
11/08:30pm 6.6 4.5 6.0 96 0.3 NNE 6 7 3 4 1029.2 1029.2 0.0
11/08:00pm 6.3 4.0 5.7 96 0.3 N 7 11 4 6 1028.9 1028.9 0.0
11/07:30pm 6.9 4.3 6.3 96 0.3 N 9 13 5 7 1028.4 1028.4 0.0
11/07:00pm 6.8 5.6 6.4 97 0.2 NE 2 6 1 3 1028.2 1028.2 0.0
11/06:30pm 6.2 5.2 5.6 96 0.3 CALM 0 0 0 0 1027.8 1027.8 0.0
11/06:00pm 6.7 5.3 5.3 91 0.6 ESE 2 9 1 5 1027.4 1027.4 0.0
11/05:30pm 8.0 4.6 4.2 77 1.7 SE 11 13 6 7 1026.9 1026.9 0.0
11/05:00pm 9.4 6.0 4.0 69 2.4 SSE 11 13 6 7 1026.7 1026.7 0.0
11/04:30pm 10.5 7.2 4.4 66 2.7 S 11 15 6 8 1026.3 1026.3 0.0
11/04:00pm 11.1 7.0 4.1 62 3.1 S 15 20 8 11 1025.8 1025.8 0.0
11/03:30pm 11.5 7.1 4.5 62 3.2 SSE 17 24 9 13 1025.6 1025.6 0.0
11/03:00pm 11.5 6.9 3.8 59 3.4 SSE 17 24 9 13 1025.3 1025.3 0.0
11/02:30pm 11.7 6.6 4.2 60 3.4 SSE 20 28 11 15 1025.3 1025.3 0.0
11/02:00pm 11.5 6.8 3.3 57 3.6 SSE 17 28 9 15 1025.3 1025.3 0.0
11/01:30pm 11.9 7.1 4.4 60 3.4 ESE 19 26 10 14 1025.1 1025.1 0.0
11/01:00pm 11.1 5.1 3.6 60 3.3 SSE 24 32 13 17 1025.4 1025.4 0.0
11/12:30pm 11.0 5.4 3.5 60 3.3 SE 22 35 12 19 1025.4 1025.4 0.0

Other formats

Comma delimited format used in spreadsheet applications
http://www.bom.gov.au/fwo/IDT60801/IDT60801.94956.axf

JavaScript Object Notation format (JSON) in row-major order
http://www.bom.gov.au/fwo/IDT60801/IDT60801.94956.json

Data quality

Most of these data are generated automatically and are frequently updated. Quality checks on data are not normally performed. It is possible for incorrect values to appear. Refer to information at About Latest Weather Observations and please check the disclaimer before using these data.